sensor_id;sensor_type;location;lat;lon;timestamp;temperature;humidity
1447;DHT22;717;51.522;7.266;2023-09-07T00:02:18;25.10;99.90
1447;DHT22;717;51.522;7.266;2023-09-07T00:05:05;25.00;99.90
1447;DHT22;717;51.522;7.266;2023-09-07T00:07:36;25.00;99.90
1447;DHT22;717;51.522;7.266;2023-09-07T00:10:07;25.00;99.90
1447;DHT22;717;51.522;7.266;2023-09-07T00:12:40;25.00;99.90
1447;DHT22;717;51.522;7.266;2023-09-07T00:15:10;25.00;99.90
1447;DHT22;717;51.522;7.266;2023-09-07T00:17:40;25.00;99.90
1447;DHT22;717;51.522;7.266;2023-09-07T00:20:11;25.00;99.90
1447;DHT22;717;51.522;7.266;2023-09-07T00:22:41;25.00;99.90
1447;DHT22;717;51.522;7.266;2023-09-07T00:25:12;25.00;99.90
1447;DHT22;717;51.522;7.266;2023-09-07T00:27:44;25.00;99.90
1447;DHT22;717;51.522;7.266;2023-09-07T00:30:14;25.00;99.90
1447;DHT22;717;51.522;7.266;2023-09-07T00:32:44;25.00;99.90
1447;DHT22;717;51.522;7.266;2023-09-07T00:35:14;25.00;99.90
1447;DHT22;717;51.522;7.266;2023-09-07T00:37:44;25.00;99.90
1447;DHT22;717;51.522;7.266;2023-09-07T00:40:14;25.00;99.90
1447;DHT22;717;51.522;7.266;2023-09-07T00:42:47;25.00;99.90
1447;DHT22;717;51.522;7.266;2023-09-07T00:45:17;24.90;99.90
1447;DHT22;717;51.522;7.266;2023-09-07T00:47:47;24.90;99.90
1447;DHT22;717;51.522;7.266;2023-09-07T00:50:17;24.90;99.90
1447;DHT22;717;51.522;7.266;2023-09-07T00:52:48;24.90;99.90
1447;DHT22;717;51.522;7.266;2023-09-07T00:55:18;24.90;99.90
1447;DHT22;717;51.522;7.266;2023-09-07T00:57:52;24.90;99.90
1447;DHT22;717;51.522;7.266;2023-09-07T01:00:23;24.90;99.90
1447;DHT22;717;51.522;7.266;2023-09-07T01:02:53;24.90;99.90
1447;DHT22;717;51.522;7.266;2023-09-07T01:05:29;24.90;99.90
1447;DHT22;717;51.522;7.266;2023-09-07T01:08:09;24.90;99.90
1447;DHT22;717;51.522;7.266;2023-09-07T01:10:40;24.90;99.90
1447;DHT22;717;51.522;7.266;2023-09-07T01:13:13;24.90;99.90
1447;DHT22;717;51.522;7.266;2023-09-07T01:15:43;24.90;99.90
1447;DHT22;717;51.522;7.266;2023-09-07T01:18:13;24.90;99.90
1447;DHT22;717;51.522;7.266;2023-09-07T01:20:52;24.90;99.90
1447;DHT22;717;51.522;7.266;2023-09-07T01:23:26;24.90;99.90
1447;DHT22;717;51.522;7.266;2023-09-07T01:25:56;24.90;99.90
1447;DHT22;717;51.522;7.266;2023-09-07T01:28:27;24.90;99.90
1447;DHT22;717;51.522;7.266;2023-09-07T01:30:58;24.80;99.90
1447;DHT22;717;51.522;7.266;2023-09-07T01:33:28;24.80;99.90
1447;DHT22;717;51.522;7.266;2023-09-07T01:35:59;24.80;99.90
1447;DHT22;717;51.522;7.266;2023-09-07T01:38:32;24.80;99.90
1447;DHT22;717;51.522;7.266;2023-09-07T01:41:02;24.80;99.90
1447;DHT22;717;51.522;7.266;2023-09-07T01:43:33;24.80;99.90
1447;DHT22;717;51.522;7.266;2023-09-07T01:46:03;24.80;99.90
1447;DHT22;717;51.522;7.266;2023-09-07T01:48:33;24.80;99.90
1447;DHT22;717;51.522;7.266;2023-09-07T01:51:04;24.70;99.90
1447;DHT22;717;51.522;7.266;2023-09-07T01:53:36;24.70;99.90
1447;DHT22;717;51.522;7.266;2023-09-07T01:56:06;24.70;99.90
1447;DHT22;717;51.522;7.266;2023-09-07T01:58:37;24.70;99.90
1447;DHT22;717;51.522;7.266;2023-09-07T02:01:20;24.60;99.90
1447;DHT22;717;51.522;7.266;2023-09-07T02:03:50;24.60;99.90
1447;DHT22;717;51.522;7.266;2023-09-07T02:06:21;24.50;99.90
1447;DHT22;717;51.522;7.266;2023-09-07T02:08:54;24.50;99.90
1447;DHT22;717;51.522;7.266;2023-09-07T02:11:24;24.50;99.90
1447;DHT22;717;51.522;7.266;2023-09-07T02:13:54;24.50;99.90
1447;DHT22;717;51.522;7.266;2023-09-07T02:16:24;24.50;99.90
1447;DHT22;717;51.522;7.266;2023-09-07T02:19:01;24.40;99.90
1447;DHT22;717;51.522;7.266;2023-09-07T02:21:32;24.40;99.90
1447;DHT22;717;51.522;7.266;2023-09-07T02:24:05;24.40;99.90
1447;DHT22;717;51.522;7.266;2023-09-07T02:26:35;24.30;99.90
1447;DHT22;717;51.522;7.266;2023-09-07T02:29:11;24.30;99.90
1447;DHT22;717;51.522;7.266;2023-09-07T02:31:41;24.30;99.90
1447;DHT22;717;51.522;7.266;2023-09-07T02:34:11;24.30;99.90
1447;DHT22;717;51.522;7.266;2023-09-07T02:36:41;24.20;99.90
1447;DHT22;717;51.522;7.266;2023-09-07T02:39:14;24.20;99.90
1447;DHT22;717;51.522;7.266;2023-09-07T02:41:44;24.20;99.90
1447;DHT22;717;51.522;7.266;2023-09-07T02:44:15;24.20;99.90
1447;DHT22;717;51.522;7.266;2023-09-07T02:46:45;24.10;99.90
1447;DHT22;717;51.522;7.266;2023-09-07T02:49:15;24.10;99.90
1447;DHT22;717;51.522;7.266;2023-09-07T02:51:45;24.10;99.90
1447;DHT22;717;51.522;7.266;2023-09-07T02:54:18;24.10;99.90
1447;DHT22;717;51.522;7.266;2023-09-07T02:56:48;24.10;99.90
1447;DHT22;717;51.522;7.266;2023-09-07T02:59:19;24.10;99.90
1447;DHT22;717;51.522;7.266;2023-09-07T03:01:49;24.10;99.90
1447;DHT22;717;51.522;7.266;2023-09-07T03:04:19;24.10;99.90
1447;DHT22;717;51.522;7.266;2023-09-07T03:06:50;24.10;99.90
1447;DHT22;717;51.522;7.266;2023-09-07T03:09:23;24.10;99.90
1447;DHT22;717;51.522;7.266;2023-09-07T03:11:53;24.00;99.90
1447;DHT22;717;51.522;7.266;2023-09-07T03:14:23;24.00;99.90
1447;DHT22;717;51.522;7.266;2023-09-07T03:16:53;24.00;99.90
1447;DHT22;717;51.522;7.266;2023-09-07T03:19:23;24.00;99.90
1447;DHT22;717;51.522;7.266;2023-09-07T03:21:53;24.00;99.90
1447;DHT22;717;51.522;7.266;2023-09-07T03:24:26;24.00;99.90
1447;DHT22;717;51.522;7.266;2023-09-07T03:26:57;24.00;99.90
1447;DHT22;717;51.522;7.266;2023-09-07T03:29:28;24.00;99.90
1447;DHT22;717;51.522;7.266;2023-09-07T03:32:00;24.00;99.90
1447;DHT22;717;51.522;7.266;2023-09-07T03:34:30;23.90;99.90
1447;DHT22;717;51.522;7.266;2023-09-07T03:37:00;23.90;99.90
1447;DHT22;717;51.522;7.266;2023-09-07T03:39:36;23.90;99.90
1447;DHT22;717;51.522;7.266;2023-09-07T03:42:06;23.90;99.90
1447;DHT22;717;51.522;7.266;2023-09-07T03:44:36;23.90;99.90
1447;DHT22;717;51.522;7.266;2023-09-07T03:47:06;23.90;99.90
1447;DHT22;717;51.522;7.266;2023-09-07T03:49:38;23.90;99.90
1447;DHT22;717;51.522;7.266;2023-09-07T03:52:09;23.90;99.90
1447;DHT22;717;51.522;7.266;2023-09-07T03:54:42;23.90;99.90
1447;DHT22;717;51.522;7.266;2023-09-07T03:57:12;23.80;99.90
1447;DHT22;717;51.522;7.266;2023-09-07T03:59:42;23.80;99.90
1447;DHT22;717;51.522;7.266;2023-09-07T04:02:13;23.80;99.90
1447;DHT22;717;51.522;7.266;2023-09-07T04:04:48;23.80;99.90
1447;DHT22;717;51.522;7.266;2023-09-07T04:07:19;23.80;99.90
1447;DHT22;717;51.522;7.266;2023-09-07T04:09:51;23.70;99.90
1447;DHT22;717;51.522;7.266;2023-09-07T04:12:21;23.70;99.90
1447;DHT22;717;51.522;7.266;2023-09-07T04:14:51;23.70;99.90
1447;DHT22;717;51.522;7.266;2023-09-07T04:17:21;23.70;99.90
1447;DHT22;717;51.522;7.266;2023-09-07T04:19:52;23.70;99.90
1447;DHT22;717;51.522;7.266;2023-09-07T04:22:22;23.70;99.90
1447;DHT22;717;51.522;7.266;2023-09-07T04:24:54;23.70;99.90
1447;DHT22;717;51.522;7.266;2023-09-07T04:27:25;23.70;99.90
1447;DHT22;717;51.522;7.266;2023-09-07T04:29:55;23.80;99.90
1447;DHT22;717;51.522;7.266;2023-09-07T04:32:26;23.70;99.90
1447;DHT22;717;51.522;7.266;2023-09-07T04:34:56;23.70;99.90
1447;DHT22;717;51.522;7.266;2023-09-07T04:37:30;23.70;99.90
1447;DHT22;717;51.522;7.266;2023-09-07T04:40:05;23.70;99.90
1447;DHT22;717;51.522;7.266;2023-09-07T04:42:36;23.70;99.90
1447;DHT22;717;51.522;7.266;2023-09-07T04:45:08;23.70;99.90
1447;DHT22;717;51.522;7.266;2023-09-07T04:47:38;23.70;99.90
1447;DHT22;717;51.522;7.266;2023-09-07T04:50:09;23.70;99.90
1447;DHT22;717;51.522;7.266;2023-09-07T04:52:40;23.70;99.90
1447;DHT22;717;51.522;7.266;2023-09-07T04:55:13;23.70;99.90
1447;DHT22;717;51.522;7.266;2023-09-07T04:57:43;23.70;99.90
1447;DHT22;717;51.522;7.266;2023-09-07T05:00:14;23.70;99.90
1447;DHT22;717;51.522;7.266;2023-09-07T05:02:44;23.70;99.90
1447;DHT22;717;51.522;7.266;2023-09-07T05:05:14;23.70;99.90
1447;DHT22;717;51.522;7.266;2023-09-07T05:07:45;23.70;99.90
1447;DHT22;717;51.522;7.266;2023-09-07T05:10:17;23.70;99.90
1447;DHT22;717;51.522;7.266;2023-09-07T05:12:48;23.70;99.90
1447;DHT22;717;51.522;7.266;2023-09-07T05:15:18;23.60;99.90
1447;DHT22;717;51.522;7.266;2023-09-07T05:17:49;23.60;99.90
1447;DHT22;717;51.522;7.266;2023-09-07T05:20:19;23.60;99.90
1447;DHT22;717;51.522;7.266;2023-09-07T05:22:49;23.60;99.90
1447;DHT22;717;51.522;7.266;2023-09-07T05:25:22;23.60;99.90
1447;DHT22;717;51.522;7.266;2023-09-07T05:27:52;23.50;99.90
1447;DHT22;717;51.522;7.266;2023-09-07T05:30:23;23.50;99.90
1447;DHT22;717;51.522;7.266;2023-09-07T05:32:53;23.50;99.90
1447;DHT22;717;51.522;7.266;2023-09-07T05:35:23;23.50;99.90
1447;DHT22;717;51.522;7.266;2023-09-07T05:37:56;23.50;99.90
1447;DHT22;717;51.522;7.266;2023-09-07T05:40:29;23.50;99.90
1447;DHT22;717;51.522;7.266;2023-09-07T05:42:59;23.50;99.90
1447;DHT22;717;51.522;7.266;2023-09-07T05:45:31;23.50;99.90
1447;DHT22;717;51.522;7.266;2023-09-07T05:48:01;23.50;99.90
1447;DHT22;717;51.522;7.266;2023-09-07T05:50:34;23.50;99.90
1447;DHT22;717;51.522;7.266;2023-09-07T05:53:05;23.50;99.90
1447;DHT22;717;51.522;7.266;2023-09-07T05:55:38;23.50;99.90
1447;DHT22;717;51.522;7.266;2023-09-07T05:58:08;23.50;99.90
1447;DHT22;717;51.522;7.266;2023-09-07T06:00:42;23.40;99.90
1447;DHT22;717;51.522;7.266;2023-09-07T06:03:13;23.40;99.90
1447;DHT22;717;51.522;7.266;2023-09-07T06:05:43;23.40;99.90
1447;DHT22;717;51.522;7.266;2023-09-07T06:08:13;23.40;99.90
1447;DHT22;717;51.522;7.266;2023-09-07T06:10:46;23.40;99.90
1447;DHT22;717;51.522;7.266;2023-09-07T06:13:16;23.40;99.90
1447;DHT22;717;51.522;7.266;2023-09-07T06:15:46;23.40;99.90
1447;DHT22;717;51.522;7.266;2023-09-07T06:18:16;23.40;99.90
1447;DHT22;717;51.522;7.266;2023-09-07T06:20:46;23.40;99.90
1447;DHT22;717;51.522;7.266;2023-09-07T06:23:17;23.40;99.90
1447;DHT22;717;51.522;7.266;2023-09-07T06:25:49;23.40;99.90
1447;DHT22;717;51.522;7.266;2023-09-07T06:28:19;23.50;99.90
1447;DHT22;717;51.522;7.266;2023-09-07T06:30:50;23.50;99.90
1447;DHT22;717;51.522;7.266;2023-09-07T06:33:20;23.50;99.90
1447;DHT22;717;51.522;7.266;2023-09-07T06:35:50;23.50;99.90
1447;DHT22;717;51.522;7.266;2023-09-07T06:38:20;23.50;99.90
1447;DHT22;717;51.522;7.266;2023-09-07T06:40:53;23.50;99.90
1447;DHT22;717;51.522;7.266;2023-09-07T06:43:23;23.60;99.90
1447;DHT22;717;51.522;7.266;2023-09-07T06:45:55;23.60;99.90
1447;DHT22;717;51.522;7.266;2023-09-07T06:48:25;23.60;99.90
1447;DHT22;717;51.522;7.266;2023-09-07T06:51:01;23.60;99.90
1447;DHT22;717;51.522;7.266;2023-09-07T06:53:32;23.60;99.90
1447;DHT22;717;51.522;7.266;2023-09-07T06:56:25;23.60;99.90
1447;DHT22;717;51.522;7.266;2023-09-07T06:58:56;23.60;99.90
1447;DHT22;717;51.522;7.266;2023-09-07T07:01:26;23.60;99.90
1447;DHT22;717;51.522;7.266;2023-09-07T07:03:57;23.70;99.90
1447;DHT22;717;51.522;7.266;2023-09-07T07:06:27;23.70;99.90
1447;DHT22;717;51.522;7.266;2023-09-07T07:08:57;23.70;99.90
1447;DHT22;717;51.522;7.266;2023-09-07T07:11:31;23.70;99.90
1447;DHT22;717;51.522;7.266;2023-09-07T07:14:01;23.70;99.90
1447;DHT22;717;51.522;7.266;2023-09-07T07:16:31;23.80;99.90
1447;DHT22;717;51.522;7.266;2023-09-07T07:19:01;23.70;99.90
1447;DHT22;717;51.522;7.266;2023-09-07T07:21:32;23.70;99.90
1447;DHT22;717;51.522;7.266;2023-09-07T07:24:05;23.80;99.90
1447;DHT22;717;51.522;7.266;2023-09-07T07:26:39;23.80;99.90
1447;DHT22;717;51.522;7.266;2023-09-07T07:29:09;23.80;99.90
1447;DHT22;717;51.522;7.266;2023-09-07T07:31:40;23.80;99.90
1447;DHT22;717;51.522;7.266;2023-09-07T07:34:10;23.90;99.90
1447;DHT22;717;51.522;7.266;2023-09-07T07:36:41;23.90;99.90
1447;DHT22;717;51.522;7.266;2023-09-07T07:39:11;23.90;99.90
1447;DHT22;717;51.522;7.266;2023-09-07T07:41:46;23.90;99.90
1447;DHT22;717;51.522;7.266;2023-09-07T07:44:17;24.00;99.90
1447;DHT22;717;51.522;7.266;2023-09-07T07:46:48;23.90;99.90
1447;DHT22;717;51.522;7.266;2023-09-07T07:49:19;24.00;99.90
1447;DHT22;717;51.522;7.266;2023-09-07T07:51:49;24.00;99.90
1447;DHT22;717;51.522;7.266;2023-09-07T07:54:22;24.00;99.90
1447;DHT22;717;51.522;7.266;2023-09-07T07:56:57;24.10;99.90
1447;DHT22;717;51.522;7.266;2023-09-07T07:59:27;24.10;99.90
1447;DHT22;717;51.522;7.266;2023-09-07T08:01:57;24.10;99.90
1447;DHT22;717;51.522;7.266;2023-09-07T08:04:27;24.20;99.90
1447;DHT22;717;51.522;7.266;2023-09-07T08:07:00;24.20;99.90
1447;DHT22;717;51.522;7.266;2023-09-07T08:09:32;24.20;99.90
1447;DHT22;717;51.522;7.266;2023-09-07T08:12:05;24.30;99.90
1447;DHT22;717;51.522;7.266;2023-09-07T08:14:36;24.30;99.90
1447;DHT22;717;51.522;7.266;2023-09-07T08:17:06;24.30;99.90
1447;DHT22;717;51.522;7.266;2023-09-07T08:19:36;24.40;99.90
1447;DHT22;717;51.522;7.266;2023-09-07T08:22:07;24.40;99.90
1447;DHT22;717;51.522;7.266;2023-09-07T08:24:37;24.40;99.90
1447;DHT22;717;51.522;7.266;2023-09-07T08:27:10;24.50;99.90
1447;DHT22;717;51.522;7.266;2023-09-07T08:29:50;24.50;99.90
1447;DHT22;717;51.522;7.266;2023-09-07T08:32:21;24.60;99.90
1447;DHT22;717;51.522;7.266;2023-09-07T08:34:51;24.60;99.90
1447;DHT22;717;51.522;7.266;2023-09-07T08:37:24;24.70;99.90
1447;DHT22;717;51.522;7.266;2023-09-07T08:39:54;24.70;99.90
1447;DHT22;717;51.522;7.266;2023-09-07T08:42:27;24.70;99.90
1447;DHT22;717;51.522;7.266;2023-09-07T08:45:01;24.80;99.90
1447;DHT22;717;51.522;7.266;2023-09-07T08:47:34;24.80;99.90
1447;DHT22;717;51.522;7.266;2023-09-07T08:50:06;24.80;99.90
1447;DHT22;717;51.522;7.266;2023-09-07T08:52:37;24.90;99.90
1447;DHT22;717;51.522;7.266;2023-09-07T08:55:08;24.90;99.90
1447;DHT22;717;51.522;7.266;2023-09-07T08:57:41;24.90;99.90
1447;DHT22;717;51.522;7.266;2023-09-07T09:00:12;25.00;99.90
1447;DHT22;717;51.522;7.266;2023-09-07T09:02:46;25.00;99.90
1447;DHT22;717;51.522;7.266;2023-09-07T09:05:23;25.00;99.90
1447;DHT22;717;51.522;7.266;2023-09-07T09:08:01;25.10;99.90
1447;DHT22;717;51.522;7.266;2023-09-07T09:10:38;25.10;99.90
1447;DHT22;717;51.522;7.266;2023-09-07T09:13:12;25.20;99.90
1447;DHT22;717;51.522;7.266;2023-09-07T09:15:42;25.20;99.90
1447;DHT22;717;51.522;7.266;2023-09-07T09:18:13;25.30;99.90
1447;DHT22;717;51.522;7.266;2023-09-07T09:20:43;25.40;99.90
1447;DHT22;717;51.522;7.266;2023-09-07T09:23:14;25.40;99.90
1447;DHT22;717;51.522;7.266;2023-09-07T09:25:44;25.50;99.90
1447;DHT22;717;51.522;7.266;2023-09-07T09:28:16;25.60;99.90
1447;DHT22;717;51.522;7.266;2023-09-07T09:30:48;25.70;99.90
1447;DHT22;717;51.522;7.266;2023-09-07T09:33:19;25.70;99.90
1447;DHT22;717;51.522;7.266;2023-09-07T09:35:51;25.80;99.90
1447;DHT22;717;51.522;7.266;2023-09-07T09:38:23;25.90;99.90
1447;DHT22;717;51.522;7.266;2023-09-07T09:40:55;25.90;99.90
1447;DHT22;717;51.522;7.266;2023-09-07T09:43:27;26.00;99.90
1447;DHT22;717;51.522;7.266;2023-09-07T09:46:00;26.10;99.90
1447;DHT22;717;51.522;7.266;2023-09-07T09:48:36;26.20;99.90
1447;DHT22;717;51.522;7.266;2023-09-07T09:51:07;26.30;99.90
1447;DHT22;717;51.522;7.266;2023-09-07T09:53:38;26.30;99.90
1447;DHT22;717;51.522;7.266;2023-09-07T09:56:09;26.40;99.90
1447;DHT22;717;51.522;7.266;2023-09-07T09:58:42;26.40;99.90
1447;DHT22;717;51.522;7.266;2023-09-07T10:01:12;26.50;99.90
1447;DHT22;717;51.522;7.266;2023-09-07T10:03:46;26.50;99.90
1447;DHT22;717;51.522;7.266;2023-09-07T10:06:23;26.60;99.90
1447;DHT22;717;51.522;7.266;2023-09-07T10:08:55;26.70;99.90
1447;DHT22;717;51.522;7.266;2023-09-07T10:11:30;26.70;99.90
1447;DHT22;717;51.522;7.266;2023-09-07T10:14:04;26.80;99.90
1447;DHT22;717;51.522;7.266;2023-09-07T10:16:42;26.80;99.90
1447;DHT22;717;51.522;7.266;2023-09-07T10:19:16;26.90;99.90
1447;DHT22;717;51.522;7.266;2023-09-07T10:21:47;27.00;99.90
1447;DHT22;717;51.522;7.266;2023-09-07T10:24:24;27.00;99.90
1447;DHT22;717;51.522;7.266;2023-09-07T10:26:59;27.10;99.90
1447;DHT22;717;51.522;7.266;2023-09-07T10:29:41;27.10;99.90
1447;DHT22;717;51.522;7.266;2023-09-07T10:32:11;27.20;99.90
1447;DHT22;717;51.522;7.266;2023-09-07T10:34:46;27.20;99.90
1447;DHT22;717;51.522;7.266;2023-09-07T10:37:17;27.30;99.90
1447;DHT22;717;51.522;7.266;2023-09-07T10:39:47;27.40;99.90
1447;DHT22;717;51.522;7.266;2023-09-07T10:42:21;27.40;99.90
1447;DHT22;717;51.522;7.266;2023-09-07T10:44:55;27.50;99.90
1447;DHT22;717;51.522;7.266;2023-09-07T10:47:25;27.60;99.90
1447;DHT22;717;51.522;7.266;2023-09-07T10:49:57;27.70;99.90
1447;DHT22;717;51.522;7.266;2023-09-07T10:52:28;27.70;99.90
1447;DHT22;717;51.522;7.266;2023-09-07T10:54:58;27.80;99.90
1447;DHT22;717;51.522;7.266;2023-09-07T10:57:29;27.90;99.90
1447;DHT22;717;51.522;7.266;2023-09-07T11:00:02;27.90;99.90
1447;DHT22;717;51.522;7.266;2023-09-07T11:02:37;27.90;99.90
1447;DHT22;717;51.522;7.266;2023-09-07T11:05:08;28.00;99.90
1447;DHT22;717;51.522;7.266;2023-09-07T11:07:39;28.00;99.90
1447;DHT22;717;51.522;7.266;2023-09-07T11:10:10;28.10;99.90
1447;DHT22;717;51.522;7.266;2023-09-07T11:12:40;28.20;99.90
1447;DHT22;717;51.522;7.266;2023-09-07T11:15:13;28.20;99.90
1447;DHT22;717;51.522;7.266;2023-09-07T11:17:44;28.20;99.90
1447;DHT22;717;51.522;7.266;2023-09-07T11:20:15;28.30;99.90
1447;DHT22;717;51.522;7.266;2023-09-07T11:22:45;28.30;99.90
1447;DHT22;717;51.522;7.266;2023-09-07T11:25:21;28.40;99.90
1447;DHT22;717;51.522;7.266;2023-09-07T11:27:52;28.40;99.90
1447;DHT22;717;51.522;7.266;2023-09-07T11:30:27;28.50;99.90
1447;DHT22;717;51.522;7.266;2023-09-07T11:33:01;28.50;99.90
1447;DHT22;717;51.522;7.266;2023-09-07T11:35:32;28.60;99.80
1447;DHT22;717;51.522;7.266;2023-09-07T11:38:03;28.70;99.70
1447;DHT22;717;51.522;7.266;2023-09-07T11:40:35;28.80;99.60
1447;DHT22;717;51.522;7.266;2023-09-07T11:43:06;28.80;99.50
1447;DHT22;717;51.522;7.266;2023-09-07T11:45:39;28.90;99.50
1447;DHT22;717;51.522;7.266;2023-09-07T11:48:11;29.00;99.60
1447;DHT22;717;51.522;7.266;2023-09-07T11:50:42;29.00;99.30
1447;DHT22;717;51.522;7.266;2023-09-07T11:53:13;29.10;99.10
1447;DHT22;717;51.522;7.266;2023-09-07T11:55:43;29.10;98.80
1447;DHT22;717;51.522;7.266;2023-09-07T11:58:13;29.20;99.10
1447;DHT22;717;51.522;7.266;2023-09-07T12:00:45;29.20;99.10
1447;DHT22;717;51.522;7.266;2023-09-07T12:03:16;29.20;99.10
1447;DHT22;717;51.522;7.266;2023-09-07T12:05:46;29.30;99.20
1447;DHT22;717;51.522;7.266;2023-09-07T12:08:16;29.30;99.20
1447;DHT22;717;51.522;7.266;2023-09-07T12:10:46;29.40;99.00
1447;DHT22;717;51.522;7.266;2023-09-07T12:13:16;29.50;99.00
1447;DHT22;717;51.522;7.266;2023-09-07T12:15:49;29.50;98.50
1447;DHT22;717;51.522;7.266;2023-09-07T12:18:19;29.60;98.80
1447;DHT22;717;51.522;7.266;2023-09-07T12:20:51;29.60;98.70
1447;DHT22;717;51.522;7.266;2023-09-07T12:23:21;29.60;98.80
1447;DHT22;717;51.522;7.266;2023-09-07T12:25:51;29.70;99.10
1447;DHT22;717;51.522;7.266;2023-09-07T12:28:22;29.70;98.80
1447;DHT22;717;51.522;7.266;2023-09-07T12:30:57;29.80;98.30
1447;DHT22;717;51.522;7.266;2023-09-07T12:33:28;29.80;98.40
1447;DHT22;717;51.522;7.266;2023-09-07T12:36:00;29.90;98.60
1447;DHT22;717;51.522;7.266;2023-09-07T12:38:30;29.90;97.90
1447;DHT22;717;51.522;7.266;2023-09-07T12:41:00;30.00;98.40
1447;DHT22;717;51.522;7.266;2023-09-07T12:43:30;30.00;98.80
1447;DHT22;717;51.522;7.266;2023-09-07T12:46:03;30.10;99.20
1447;DHT22;717;51.522;7.266;2023-09-07T12:48:34;30.10;99.60
1447;DHT22;717;51.522;7.266;2023-09-07T12:51:04;30.20;99.90
1447;DHT22;717;51.522;7.266;2023-09-07T12:53:34;30.20;99.90
1447;DHT22;717;51.522;7.266;2023-09-07T12:56:04;30.30;99.90
1447;DHT22;717;51.522;7.266;2023-09-07T12:58:34;30.30;99.90
1447;DHT22;717;51.522;7.266;2023-09-07T13:01:07;30.40;99.90
1447;DHT22;717;51.522;7.266;2023-09-07T13:03:38;30.40;99.90
1447;DHT22;717;51.522;7.266;2023-09-07T13:06:08;30.40;99.90
1447;DHT22;717;51.522;7.266;2023-09-07T13:08:39;30.50;99.90
1447;DHT22;717;51.522;7.266;2023-09-07T13:11:09;30.50;99.90
1447;DHT22;717;51.522;7.266;2023-09-07T13:13:40;30.60;99.60
1447;DHT22;717;51.522;7.266;2023-09-07T13:16:12;30.60;99.30
1447;DHT22;717;51.522;7.266;2023-09-07T13:18:42;30.70;99.60
1447;DHT22;717;51.522;7.266;2023-09-07T13:21:13;30.70;99.90
1447;DHT22;717;51.522;7.266;2023-09-07T13:23:43;30.70;99.90
1447;DHT22;717;51.522;7.266;2023-09-07T13:26:13;30.80;99.50
1447;DHT22;717;51.522;7.266;2023-09-07T13:28:43;30.80;99.80
1447;DHT22;717;51.522;7.266;2023-09-07T13:31:16;30.90;99.90
1447;DHT22;717;51.522;7.266;2023-09-07T13:33:47;30.90;99.80
1447;DHT22;717;51.522;7.266;2023-09-07T13:36:17;30.90;99.90
1447;DHT22;717;51.522;7.266;2023-09-07T13:38:47;31.00;99.50
1447;DHT22;717;51.522;7.266;2023-09-07T13:41:19;31.00;99.30
1447;DHT22;717;51.522;7.266;2023-09-07T13:43:49;31.00;99.20
1447;DHT22;717;51.522;7.266;2023-09-07T13:46:23;31.10;99.40
1447;DHT22;717;51.522;7.266;2023-09-07T13:48:53;31.10;99.30
1447;DHT22;717;51.522;7.266;2023-09-07T13:51:23;31.20;99.30
1447;DHT22;717;51.522;7.266;2023-09-07T13:53:56;31.20;99.10
1447;DHT22;717;51.522;7.266;2023-09-07T13:56:26;31.20;99.00
1447;DHT22;717;51.522;7.266;2023-09-07T13:58:56;31.30;99.20
1447;DHT22;717;51.522;7.266;2023-09-07T14:01:28;31.30;99.30
1447;DHT22;717;51.522;7.266;2023-09-07T14:03:59;31.30;98.90
1447;DHT22;717;51.522;7.266;2023-09-07T14:06:29;31.30;98.90
1447;DHT22;717;51.522;7.266;2023-09-07T14:08:59;31.30;98.30
1447;DHT22;717;51.522;7.266;2023-09-07T14:11:29;31.40;98.30
1447;DHT22;717;51.522;7.266;2023-09-07T14:14:00;31.40;98.40
1447;DHT22;717;51.522;7.266;2023-09-07T14:16:33;31.50;98.60
1447;DHT22;717;51.522;7.266;2023-09-07T14:19:03;31.50;98.60
1447;DHT22;717;51.522;7.266;2023-09-07T14:21:33;31.50;98.50
1447;DHT22;717;51.522;7.266;2023-09-07T14:24:04;31.50;98.50
1447;DHT22;717;51.522;7.266;2023-09-07T14:26:34;31.60;98.60
1447;DHT22;717;51.522;7.266;2023-09-07T14:29:04;31.60;98.20
1447;DHT22;717;51.522;7.266;2023-09-07T14:31:37;31.60;98.40
1447;DHT22;717;51.522;7.266;2023-09-07T14:34:09;31.70;98.20
1447;DHT22;717;51.522;7.266;2023-09-07T14:36:39;31.70;98.10
1447;DHT22;717;51.522;7.266;2023-09-07T14:39:09;31.70;98.00
1447;DHT22;717;51.522;7.266;2023-09-07T14:41:39;31.80;98.40
1447;DHT22;717;51.522;7.266;2023-09-07T14:44:10;31.80;97.80
1447;DHT22;717;51.522;7.266;2023-09-07T14:46:42;31.80;97.60
1447;DHT22;717;51.522;7.266;2023-09-07T14:49:14;31.80;97.10
1447;DHT22;717;51.522;7.266;2023-09-07T14:51:44;31.90;97.10
1447;DHT22;717;51.522;7.266;2023-09-07T14:54:15;32.00;97.20
1447;DHT22;717;51.522;7.266;2023-09-07T14:56:45;32.00;97.20
1447;DHT22;717;51.522;7.266;2023-09-07T14:59:14;32.00;96.80
1447;DHT22;717;51.522;7.266;2023-09-07T15:01:47;32.10;96.50
1447;DHT22;717;51.522;7.266;2023-09-07T15:04:30;32.10;95.90
1447;DHT22;717;51.522;7.266;2023-09-07T15:07:01;32.10;95.90
1447;DHT22;717;51.522;7.266;2023-09-07T15:09:31;32.20;96.00
1447;DHT22;717;51.522;7.266;2023-09-07T15:12:01;32.20;96.30
1447;DHT22;717;51.522;7.266;2023-09-07T15:14:31;32.30;95.70
1447;DHT22;717;51.522;7.266;2023-09-07T15:17:04;32.30;95.30
1447;DHT22;717;51.522;7.266;2023-09-07T15:19:35;32.30;95.30
1447;DHT22;717;51.522;7.266;2023-09-07T15:22:05;32.40;95.00
1447;DHT22;717;51.522;7.266;2023-09-07T15:24:35;32.40;94.80
1447;DHT22;717;51.522;7.266;2023-09-07T15:27:09;32.40;95.00
1447;DHT22;717;51.522;7.266;2023-09-07T15:29:39;32.40;94.90
1447;DHT22;717;51.522;7.266;2023-09-07T15:32:13;32.40;94.40
1447;DHT22;717;51.522;7.266;2023-09-07T15:34:43;32.50;94.10
1447;DHT22;717;51.522;7.266;2023-09-07T15:37:14;32.50;94.10
1447;DHT22;717;51.522;7.266;2023-09-07T15:39:45;32.50;93.90
1447;DHT22;717;51.522;7.266;2023-09-07T15:42:15;32.60;93.90
1447;DHT22;717;51.522;7.266;2023-09-07T15:44:45;32.50;93.90
1447;DHT22;717;51.522;7.266;2023-09-07T15:47:19;32.60;93.70
1447;DHT22;717;51.522;7.266;2023-09-07T15:49:51;32.60;93.80
1447;DHT22;717;51.522;7.266;2023-09-07T15:52:22;32.60;93.80
1447;DHT22;717;51.522;7.266;2023-09-07T15:54:52;32.60;93.80
1447;DHT22;717;51.522;7.266;2023-09-07T15:57:22;32.60;93.90
1447;DHT22;717;51.522;7.266;2023-09-07T15:59:52;32.60;93.70
1447;DHT22;717;51.522;7.266;2023-09-07T16:02:25;32.60;93.80
1447;DHT22;717;51.522;7.266;2023-09-07T16:04:56;32.60;93.70
1447;DHT22;717;51.522;7.266;2023-09-07T16:07:26;32.60;93.60
1447;DHT22;717;51.522;7.266;2023-09-07T16:09:56;32.60;93.60
1447;DHT22;717;51.522;7.266;2023-09-07T16:12:26;32.60;93.50
1447;DHT22;717;51.522;7.266;2023-09-07T16:14:56;32.60;93.50
1447;DHT22;717;51.522;7.266;2023-09-07T16:17:29;32.60;93.50
1447;DHT22;717;51.522;7.266;2023-09-07T16:19:59;32.60;93.50
1447;DHT22;717;51.522;7.266;2023-09-07T16:22:29;32.60;93.60
1447;DHT22;717;51.522;7.266;2023-09-07T16:24:59;32.50;93.30
1447;DHT22;717;51.522;7.266;2023-09-07T16:27:29;32.60;93.40
1447;DHT22;717;51.522;7.266;2023-09-07T16:30:06;32.60;93.60
1447;DHT22;717;51.522;7.266;2023-09-07T16:32:38;32.50;93.60
1447;DHT22;717;51.522;7.266;2023-09-07T16:35:09;32.50;93.50
1447;DHT22;717;51.522;7.266;2023-09-07T16:37:40;32.50;93.50
1447;DHT22;717;51.522;7.266;2023-09-07T16:40:11;32.40;93.40
1447;DHT22;717;51.522;7.266;2023-09-07T16:42:42;32.40;93.40
1447;DHT22;717;51.522;7.266;2023-09-07T16:45:12;32.40;93.40